sensor_id;sensor_type;location;lat;lon;timestamp;temperature;humidity
10231;DHT22;62604;49.432;8.680;2023-06-26T00:01:06;21.90;34.70
10231;DHT22;62604;49.432;8.680;2023-06-26T00:03:33;21.90;34.80
10231;DHT22;62604;49.432;8.680;2023-06-26T00:06:00;22.00;34.00
10231;DHT22;62604;49.432;8.680;2023-06-26T00:08:27;22.00;34.20
10231;DHT22;62604;49.432;8.680;2023-06-26T00:10:54;21.90;34.70
10231;DHT22;62604;49.432;8.680;2023-06-26T00:13:23;21.80;35.40
10231;DHT22;62604;49.432;8.680;2023-06-26T00:15:50;21.80;36.10
10231;DHT22;62604;49.432;8.680;2023-06-26T00:18:17;21.70;36.50
10231;DHT22;62604;49.432;8.680;2023-06-26T00:20:44;21.70;36.60
10231;DHT22;62604;49.432;8.680;2023-06-26T00:23:12;21.70;36.60
10231;DHT22;62604;49.432;8.680;2023-06-26T00:25:42;21.80;36.30
10231;DHT22;62604;49.432;8.680;2023-06-26T00:28:09;21.80;36.70
10231;DHT22;62604;49.432;8.680;2023-06-26T00:30:37;21.70;37.20
10231;DHT22;62604;49.432;8.680;2023-06-26T00:33:04;21.60;38.20
10231;DHT22;62604;49.432;8.680;2023-06-26T00:35:31;21.60;38.20
10231;DHT22;62604;49.432;8.680;2023-06-26T00:37:58;21.50;38.90
10231;DHT22;62604;49.432;8.680;2023-06-26T00:40:25;21.40;39.70
10231;DHT22;62604;49.432;8.680;2023-06-26T00:42:53;21.30;40.20
10231;DHT22;62604;49.432;8.680;2023-06-26T00:45:19;21.20;41.00
10231;DHT22;62604;49.432;8.680;2023-06-26T00:47:48;21.20;42.40
10231;DHT22;62604;49.432;8.680;2023-06-26T00:50:15;21.10;43.50
10231;DHT22;62604;49.432;8.680;2023-06-26T00:52:43;21.00;44.40
10231;DHT22;62604;49.432;8.680;2023-06-26T00:55:10;20.80;45.20
10231;DHT22;62604;49.432;8.680;2023-06-26T00:57:37;20.80;46.20
10231;DHT22;62604;49.432;8.680;2023-06-26T01:00:06;20.70;46.90
10231;DHT22;62604;49.432;8.680;2023-06-26T01:02:33;20.70;46.80
10231;DHT22;62604;49.432;8.680;2023-06-26T01:05:03;20.60;47.10
10231;DHT22;62604;49.432;8.680;2023-06-26T01:07:32;20.60;47.60
10231;DHT22;62604;49.432;8.680;2023-06-26T01:10:02;20.60;48.30
10231;DHT22;62604;49.432;8.680;2023-06-26T01:12:30;20.60;48.30
10231;DHT22;62604;49.432;8.680;2023-06-26T01:14:58;20.50;48.80
10231;DHT22;62604;49.432;8.680;2023-06-26T01:17:25;20.60;49.40
10231;DHT22;62604;49.432;8.680;2023-06-26T01:19:57;20.60;50.00
10231;DHT22;62604;49.432;8.680;2023-06-26T01:22:31;20.60;49.30
10231;DHT22;62604;49.432;8.680;2023-06-26T01:25:07;20.60;49.60
10231;DHT22;62604;49.432;8.680;2023-06-26T01:27:40;20.50;51.40
10231;DHT22;62604;49.432;8.680;2023-06-26T01:30:09;20.40;53.40
10231;DHT22;62604;49.432;8.680;2023-06-26T01:32:36;20.30;54.30
10231;DHT22;62604;49.432;8.680;2023-06-26T01:35:05;20.20;54.40
10231;DHT22;62604;49.432;8.680;2023-06-26T01:37:33;20.10;56.60
10231;DHT22;62604;49.432;8.680;2023-06-26T01:39:59;20.10;56.60
10231;DHT22;62604;49.432;8.680;2023-06-26T01:42:26;20.10;56.50
10231;DHT22;62604;49.432;8.680;2023-06-26T01:44:55;20.10;56.30
10231;DHT22;62604;49.432;8.680;2023-06-26T01:47:24;20.10;57.60
10231;DHT22;62604;49.432;8.680;2023-06-26T01:49:58;20.10;58.20
10231;DHT22;62604;49.432;8.680;2023-06-26T01:52:31;20.00;60.00
10231;DHT22;62604;49.432;8.680;2023-06-26T01:55:05;20.00;61.40
10231;DHT22;62604;49.432;8.680;2023-06-26T01:57:32;19.90;62.90
10231;DHT22;62604;49.432;8.680;2023-06-26T02:00:03;19.80;64.90
10231;DHT22;62604;49.432;8.680;2023-06-26T02:02:31;19.80;65.30
10231;DHT22;62604;49.432;8.680;2023-06-26T02:04:58;19.70;65.20
10231;DHT22;62604;49.432;8.680;2023-06-26T02:07:25;19.70;66.10
10231;DHT22;62604;49.432;8.680;2023-06-26T02:09:52;19.60;66.30
10231;DHT22;62604;49.432;8.680;2023-06-26T02:12:19;19.50;67.00
10231;DHT22;62604;49.432;8.680;2023-06-26T02:14:46;19.50;67.10
10231;DHT22;62604;49.432;8.680;2023-06-26T02:17:14;19.40;67.80
10231;DHT22;62604;49.432;8.680;2023-06-26T02:19:41;19.30;67.90
10231;DHT22;62604;49.432;8.680;2023-06-26T02:22:13;19.30;69.10
10231;DHT22;62604;49.432;8.680;2023-06-26T02:24:40;19.20;71.00
10231;DHT22;62604;49.432;8.680;2023-06-26T02:27:06;19.20;71.80
10231;DHT22;62604;49.432;8.680;2023-06-26T02:29:33;19.10;72.70
10231;DHT22;62604;49.432;8.680;2023-06-26T02:32:00;19.20;74.40
10231;DHT22;62604;49.432;8.680;2023-06-26T02:34:28;19.10;74.00
10231;DHT22;62604;49.432;8.680;2023-06-26T02:36:56;19.10;73.70
10231;DHT22;62604;49.432;8.680;2023-06-26T02:39:24;19.20;74.00
10231;DHT22;62604;49.432;8.680;2023-06-26T02:41:50;19.10;74.60
10231;DHT22;62604;49.432;8.680;2023-06-26T02:44:17;19.10;78.00
10231;DHT22;62604;49.432;8.680;2023-06-26T02:46:44;19.00;79.30
10231;DHT22;62604;49.432;8.680;2023-06-26T02:49:11;19.00;82.00
10231;DHT22;62604;49.432;8.680;2023-06-26T02:51:40;19.00;82.20
10231;DHT22;62604;49.432;8.680;2023-06-26T02:54:06;18.90;83.00
10231;DHT22;62604;49.432;8.680;2023-06-26T02:56:33;18.90;85.80
10231;DHT22;62604;49.432;8.680;2023-06-26T02:59:00;18.80;86.30
10231;DHT22;62604;49.432;8.680;2023-06-26T03:01:27;18.70;84.90
10231;DHT22;62604;49.432;8.680;2023-06-26T03:03:55;18.60;88.00
10231;DHT22;62604;49.432;8.680;2023-06-26T03:06:22;18.60;90.30
10231;DHT22;62604;49.432;8.680;2023-06-26T03:08:50;18.50;90.80
10231;DHT22;62604;49.432;8.680;2023-06-26T03:11:17;18.50;91.60
10231;DHT22;62604;49.432;8.680;2023-06-26T03:13:44;18.50;91.60
10231;DHT22;62604;49.432;8.680;2023-06-26T03:16:10;18.40;92.30
10231;DHT22;62604;49.432;8.680;2023-06-26T03:18:37;18.40;91.90
10231;DHT22;62604;49.432;8.680;2023-06-26T03:21:05;18.30;93.50
10231;DHT22;62604;49.432;8.680;2023-06-26T03:23:31;18.40;94.20
10231;DHT22;62604;49.432;8.680;2023-06-26T14:41:23;32.40;7.20
10231;DHT22;62604;49.432;8.680;2023-06-26T14:43:50;31.70;7.30
10231;DHT22;62604;49.432;8.680;2023-06-26T14:46:20;31.50;7.10
10231;DHT22;62604;49.432;8.680;2023-06-26T14:48:49;31.40;7.00
10231;DHT22;62604;49.432;8.680;2023-06-26T14:51:18;31.20;7.00
10231;DHT22;62604;49.432;8.680;2023-06-26T14:53:46;30.90;6.30
10231;DHT22;62604;49.432;8.680;2023-06-26T14:56:14;31.00;7.00
10231;DHT22;62604;49.432;8.680;2023-06-26T14:58:43;30.90;7.90
10231;DHT22;62604;49.432;8.680;2023-06-26T15:01:12;30.60;6.80
10231;DHT22;62604;49.432;8.680;2023-06-26T15:03:41;30.20;5.50
10231;DHT22;62604;49.432;8.680;2023-06-26T15:06:10;30.10;6.00
10231;DHT22;62604;49.432;8.680;2023-06-26T15:08:38;30.40;6.00
10231;DHT22;62604;49.432;8.680;2023-06-26T15:11:06;30.40;5.40
10231;DHT22;62604;49.432;8.680;2023-06-26T15:13:33;30.50;5.20
10231;DHT22;62604;49.432;8.680;2023-06-26T15:16:03;30.70;6.00
10231;DHT22;62604;49.432;8.680;2023-06-26T15:18:30;30.50;5.10
10231;DHT22;62604;49.432;8.680;2023-06-26T15:20:58;30.50;5.40
10231;DHT22;62604;49.432;8.680;2023-06-26T15:23:28;30.40;5.60
10231;DHT22;62604;49.432;8.680;2023-06-26T15:25:57;30.10;5.00
10231;DHT22;62604;49.432;8.680;2023-06-26T15:28:24;29.90;5.60
10231;DHT22;62604;49.432;8.680;2023-06-26T15:30:51;29.50;6.00
10231;DHT22;62604;49.432;8.680;2023-06-26T15:33:20;29.60;6.70
10231;DHT22;62604;49.432;8.680;2023-06-26T15:35:47;29.70;6.30
10231;DHT22;62604;49.432;8.680;2023-06-26T15:38:15;29.50;6.40
10231;DHT22;62604;49.432;8.680;2023-06-26T15:40:43;29.40;5.50
10231;DHT22;62604;49.432;8.680;2023-06-26T15:43:10;29.30;6.30
10231;DHT22;62604;49.432;8.680;2023-06-26T15:45:38;29.30;6.20
10231;DHT22;62604;49.432;8.680;2023-06-26T15:48:06;29.30;6.30
10231;DHT22;62604;49.432;8.680;2023-06-26T15:50:34;29.00;6.30
10231;DHT22;62604;49.432;8.680;2023-06-26T15:53:02;29.30;6.50
10231;DHT22;62604;49.432;8.680;2023-06-26T15:55:30;29.30;6.40
10231;DHT22;62604;49.432;8.680;2023-06-26T15:57:58;29.40;6.90
10231;DHT22;62604;49.432;8.680;2023-06-26T16:00:27;29.50;6.80
10231;DHT22;62604;49.432;8.680;2023-06-26T16:02:54;29.50;6.70
10231;DHT22;62604;49.432;8.680;2023-06-26T16:05:21;29.40;6.30
10231;DHT22;62604;49.432;8.680;2023-06-26T16:07:50;29.30;6.20
10231;DHT22;62604;49.432;8.680;2023-06-26T16:10:18;29.30;6.20
10231;DHT22;62604;49.432;8.680;2023-06-26T16:12:45;29.20;5.90
10231;DHT22;62604;49.432;8.680;2023-06-26T16:15:12;29.00;5.70
10231;DHT22;62604;49.432;8.680;2023-06-26T16:17:44;29.10;6.50
10231;DHT22;62604;49.432;8.680;2023-06-26T16:20:12;29.00;5.40
10231;DHT22;62604;49.432;8.680;2023-06-26T16:22:40;28.90;6.10
10231;DHT22;62604;49.432;8.680;2023-06-26T16:25:08;28.90;6.30
10231;DHT22;62604;49.432;8.680;2023-06-26T16:27:36;28.80;6.60
10231;DHT22;62604;49.432;8.680;2023-06-26T16:30:04;28.70;7.20
10231;DHT22;62604;49.432;8.680;2023-06-26T16:32:32;28.70;7.80
10231;DHT22;62604;49.432;8.680;2023-06-26T16:34:59;28.50;7.50
10231;DHT22;62604;49.432;8.680;2023-06-26T16:37:28;28.40;7.70
10231;DHT22;62604;49.432;8.680;2023-06-26T16:39:55;28.30;8.00
10231;DHT22;62604;49.432;8.680;2023-06-26T16:42:24;28.30;8.30
10231;DHT22;62604;49.432;8.680;2023-06-26T16:44:51;28.30;8.60
10231;DHT22;62604;49.432;8.680;2023-06-26T16:47:20;28.30;8.70
10231;DHT22;62604;49.432;8.680;2023-06-26T16:49:47;28.20;8.40
10231;DHT22;62604;49.432;8.680;2023-06-26T16:52:14;28.10;8.60
10231;DHT22;62604;49.432;8.680;2023-06-26T16:54:42;28.10;8.70
10231;DHT22;62604;49.432;8.680;2023-06-26T16:57:09;27.90;8.40
10231;DHT22;62604;49.432;8.680;2023-06-26T16:59:38;27.90;9.20
10231;DHT22;62604;49.432;8.680;2023-06-26T17:02:05;27.90;9.30
10231;DHT22;62604;49.432;8.680;2023-06-26T17:04:33;27.80;8.90
10231;DHT22;62604;49.432;8.680;2023-06-26T17:07:01;27.80;9.20
10231;DHT22;62604;49.432;8.680;2023-06-26T17:09:28;27.70;9.00
10231;DHT22;62604;49.432;8.680;2023-06-26T17:11:55;27.50;9.20
10231;DHT22;62604;49.432;8.680;2023-06-26T17:14:23;27.50;9.40
10231;DHT22;62604;49.432;8.680;2023-06-26T17:16:51;27.30;9.50
10231;DHT22;62604;49.432;8.680;2023-06-26T17:19:18;27.20;9.90
10231;DHT22;62604;49.432;8.680;2023-06-26T17:21:46;27.10;9.70
10231;DHT22;62604;49.432;8.680;2023-06-26T17:24:15;27.00;10.50
10231;DHT22;62604;49.432;8.680;2023-06-26T17:26:43;26.90;9.30
10231;DHT22;62604;49.432;8.680;2023-06-26T17:29:11;26.90;8.90
10231;DHT22;62604;49.432;8.680;2023-06-26T17:31:38;26.80;8.60
10231;DHT22;62604;49.432;8.680;2023-06-26T17:34:07;26.80;8.40
10231;DHT22;62604;49.432;8.680;2023-06-26T17:36:34;26.80;8.00
10231;DHT22;62604;49.432;8.680;2023-06-26T17:39:02;26.80;8.70
10231;DHT22;62604;49.432;8.680;2023-06-26T17:41:31;26.70;8.60
10231;DHT22;62604;49.432;8.680;2023-06-26T17:44:00;26.70;8.20
10231;DHT22;62604;49.432;8.680;2023-06-26T17:46:41;26.70;7.80
10231;DHT22;62604;49.432;8.680;2023-06-26T17:49:10;26.80;8.00
10231;DHT22;62604;49.432;8.680;2023-06-26T17:51:37;26.80;8.30
10231;DHT22;62604;49.432;8.680;2023-06-26T17:54:04;26.80;8.60
10231;DHT22;62604;49.432;8.680;2023-06-26T17:56:32;26.70;7.70
10231;DHT22;62604;49.432;8.680;2023-06-26T17:59:00;26.70;7.90
10231;DHT22;62604;49.432;8.680;2023-06-26T18:01:29;26.60;7.90
10231;DHT22;62604;49.432;8.680;2023-06-26T18:06:26;26.50;8.70
10231;DHT22;62604;49.432;8.680;2023-06-26T18:09:00;26.40;9.00
10231;DHT22;62604;49.432;8.680;2023-06-26T18:11:29;26.20;8.80
10231;DHT22;62604;49.432;8.680;2023-06-26T18:13:56;26.10;8.60
10231;DHT22;62604;49.432;8.680;2023-06-26T18:16:24;26.00;9.20
10231;DHT22;62604;49.432;8.680;2023-06-26T18:18:51;25.80;9.60
10231;DHT22;62604;49.432;8.680;2023-06-26T18:21:19;25.70;9.60
10231;DHT22;62604;49.432;8.680;2023-06-26T18:23:48;25.60;9.60
10231;DHT22;62604;49.432;8.680;2023-06-26T18:26:16;25.50;9.80
10231;DHT22;62604;49.432;8.680;2023-06-26T18:28:43;25.30;9.40
10231;DHT22;62604;49.432;8.680;2023-06-26T18:31:10;25.30;9.80
10231;DHT22;62604;49.432;8.680;2023-06-26T18:33:37;25.20;10.40
10231;DHT22;62604;49.432;8.680;2023-06-26T18:36:05;25.10;10.70
10231;DHT22;62604;49.432;8.680;2023-06-26T18:38:35;25.00;11.10
10231;DHT22;62604;49.432;8.680;2023-06-26T18:41:04;24.80;11.30
10231;DHT22;62604;49.432;8.680;2023-06-26T18:43:32;24.80;11.70
10231;DHT22;62604;49.432;8.680;2023-06-26T18:45:59;24.70;11.90
10231;DHT22;62604;49.432;8.680;2023-06-26T18:48:26;24.70;12.00
10231;DHT22;62604;49.432;8.680;2023-06-26T18:50:53;24.80;12.80
10231;DHT22;62604;49.432;8.680;2023-06-26T18:53:22;24.80;12.90
10231;DHT22;62604;49.432;8.680;2023-06-26T18:55:50;24.80;13.90
10231;DHT22;62604;49.432;8.680;2023-06-26T18:58:19;24.70;14.50
10231;DHT22;62604;49.432;8.680;2023-06-26T19:00:46;24.60;15.00
10231;DHT22;62604;49.432;8.680;2023-06-26T19:03:14;24.60;15.30
10231;DHT22;62604;49.432;8.680;2023-06-26T19:05:41;24.50;15.50
10231;DHT22;62604;49.432;8.680;2023-06-26T19:08:08;24.40;15.70
10231;DHT22;62604;49.432;8.680;2023-06-26T19:10:36;24.40;15.60
10231;DHT22;62604;49.432;8.680;2023-06-26T19:13:03;24.30;15.50
10231;DHT22;62604;49.432;8.680;2023-06-26T19:15:35;24.20;15.40
10231;DHT22;62604;49.432;8.680;2023-06-26T19:18:02;24.10;15.70
10231;DHT22;62604;49.432;8.680;2023-06-26T19:20:29;24.10;15.90
10231;DHT22;62604;49.432;8.680;2023-06-26T19:22:57;24.00;16.10
10231;DHT22;62604;49.432;8.680;2023-06-26T19:25:24;23.90;16.10
10231;DHT22;62604;49.432;8.680;2023-06-26T19:27:53;23.80;16.00
10231;DHT22;62604;49.432;8.680;2023-06-26T19:30:20;23.80;15.80
10231;DHT22;62604;49.432;8.680;2023-06-26T19:32:48;23.70;15.80
10231;DHT22;62604;49.432;8.680;2023-06-26T19:35:16;23.60;15.70
10231;DHT22;62604;49.432;8.680;2023-06-26T19:37:43;23.60;15.90
10231;DHT22;62604;49.432;8.680;2023-06-26T19:40:15;23.50;16.30
10231;DHT22;62604;49.432;8.680;2023-06-26T19:42:42;23.50;16.20
10231;DHT22;62604;49.432;8.680;2023-06-26T19:45:12;23.40;16.80
10231;DHT22;62604;49.432;8.680;2023-06-26T19:47:39;23.40;17.10
10231;DHT22;62604;49.432;8.680;2023-06-26T19:50:09;23.40;16.90
10231;DHT22;62604;49.432;8.680;2023-06-26T19:52:38;23.30;17.00
10231;DHT22;62604;49.432;8.680;2023-06-26T19:55:06;23.30;16.90
10231;DHT22;62604;49.432;8.680;2023-06-26T19:57:37;23.30;17.70
10231;DHT22;62604;49.432;8.680;2023-06-26T20:00:05;23.20;17.20
10231;DHT22;62604;49.432;8.680;2023-06-26T20:02:33;23.20;17.10
10231;DHT22;62604;49.432;8.680;2023-06-26T20:05:01;23.10;17.10
10231;DHT22;62604;49.432;8.680;2023-06-26T20:07:31;23.10;17.30
10231;DHT22;62604;49.432;8.680;2023-06-26T20:09:59;23.00;17.40
10231;DHT22;62604;49.432;8.680;2023-06-26T20:12:26;23.00;17.30
10231;DHT22;62604;49.432;8.680;2023-06-26T20:14:53;22.90;17.50
10231;DHT22;62604;49.432;8.680;2023-06-26T20:17:21;22.90;17.40
10231;DHT22;62604;49.432;8.680;2023-06-26T20:19:51;22.90;17.70
10231;DHT22;62604;49.432;8.680;2023-06-26T20:22:18;22.70;17.20
10231;DHT22;62604;49.432;8.680;2023-06-26T20:24:47;22.70;17.40
10231;DHT22;62604;49.432;8.680;2023-06-26T20:27:14;22.70;17.50
10231;DHT22;62604;49.432;8.680;2023-06-26T20:29:41;22.60;17.20
10231;DHT22;62604;49.432;8.680;2023-06-26T20:32:09;22.60;17.50
10231;DHT22;62604;49.432;8.680;2023-06-26T20:34:35;22.50;17.50
10231;DHT22;62604;49.432;8.680;2023-06-26T20:37:04;22.50;17.60
10231;DHT22;62604;49.432;8.680;2023-06-26T20:39:31;22.50;17.80
10231;DHT22;62604;49.432;8.680;2023-06-26T20:42:01;22.40;17.70
10231;DHT22;62604;49.432;8.680;2023-06-26T20:44:29;22.40;18.00
10231;DHT22;62604;49.432;8.680;2023-06-26T20:46:57;22.30;17.90
10231;DHT22;62604;49.432;8.680;2023-06-26T20:49:35;22.30;18.20
10231;DHT22;62604;49.432;8.680;2023-06-26T20:52:04;22.20;18.20
10231;DHT22;62604;49.432;8.680;2023-06-26T20:54:34;22.20;18.00
10231;DHT22;62604;49.432;8.680;2023-06-26T20:57:04;22.10;18.10
10231;DHT22;62604;49.432;8.680;2023-06-26T20:59:31;22.00;18.30
10231;DHT22;62604;49.432;8.680;2023-06-26T21:01:58;22.00;18.10
10231;DHT22;62604;49.432;8.680;2023-06-26T21:04:26;22.00;18.40
10231;DHT22;62604;49.432;8.680;2023-06-26T21:06:54;21.90;18.40
10231;DHT22;62604;49.432;8.680;2023-06-26T21:09:21;21.80;18.40
10231;DHT22;62604;49.432;8.680;2023-06-26T21:11:48;21.80;18.40
10231;DHT22;62604;49.432;8.680;2023-06-26T21:14:19;21.80;18.50
10231;DHT22;62604;49.432;8.680;2023-06-26T21:16:47;21.70;18.80
10231;DHT22;62604;49.432;8.680;2023-06-26T21:19:14;21.70;18.90
10231;DHT22;62604;49.432;8.680;2023-06-26T21:21:42;21.60;19.30
10231;DHT22;62604;49.432;8.680;2023-06-26T21:24:09;21.60;18.80
10231;DHT22;62604;49.432;8.680;2023-06-26T21:26:38;21.60;19.00
10231;DHT22;62604;49.432;8.680;2023-06-26T21:29:05;21.50;19.00
10231;DHT22;62604;49.432;8.680;2023-06-26T21:31:34;21.50;19.60
10231;DHT22;62604;49.432;8.680;2023-06-26T21:34:01;21.50;19.00
10231;DHT22;62604;49.432;8.680;2023-06-26T21:36:29;21.50;19.10
10231;DHT22;62604;49.432;8.680;2023-06-26T21:38:56;21.50;19.30
10231;DHT22;62604;49.432;8.680;2023-06-26T21:41:24;21.40;19.00
10231;DHT22;62604;49.432;8.680;2023-06-26T21:43:53;21.40;20.00
10231;DHT22;62604;49.432;8.680;2023-06-26T21:46:20;21.40;20.00
10231;DHT22;62604;49.432;8.680;2023-06-26T21:48:49;21.40;20.50
10231;DHT22;62604;49.432;8.680;2023-06-26T21:51:17;21.30;20.80
10231;DHT22;62604;49.432;8.680;2023-06-26T21:53:44;21.20;20.80
10231;DHT22;62604;49.432;8.680;2023-06-26T21:56:14;21.20;21.10
10231;DHT22;62604;49.432;8.680;2023-06-26T21:58:42;21.20;21.30
10231;DHT22;62604;49.432;8.680;2023-06-26T22:01:37;21.10;21.40
10231;DHT22;62604;49.432;8.680;2023-06-26T22:04:06;21.00;21.70
10231;DHT22;62604;49.432;8.680;2023-06-26T22:06:32;21.00;22.00
10231;DHT22;62604;49.432;8.680;2023-06-26T22:08:59;21.00;22.10
10231;DHT22;62604;49.432;8.680;2023-06-26T22:11:26;21.00;22.40
10231;DHT22;62604;49.432;8.680;2023-06-26T22:13:53;21.00;22.40
10231;DHT22;62604;49.432;8.680;2023-06-26T22:16:20;20.90;22.70
10231;DHT22;62604;49.432;8.680;2023-06-26T22:18:47;20.90;22.80
10231;DHT22;62604;49.432;8.680;2023-06-26T22:21:15;20.70;22.80
10231;DHT22;62604;49.432;8.680;2023-06-26T22:23:44;20.70;23.20
10231;DHT22;62604;49.432;8.680;2023-06-26T22:26:12;20.70;22.80
10231;DHT22;62604;49.432;8.680;2023-06-26T22:28:39;20.60;23.00
10231;DHT22;62604;49.432;8.680;2023-06-26T22:31:06;20.60;23.60
10231;DHT22;62604;49.432;8.680;2023-06-26T22:33:33;20.60;23.90
10231;DHT22;62604;49.432;8.680;2023-06-26T22:36:00;20.60;24.10
10231;DHT22;62604;49.432;8.680;2023-06-26T22:38:28;20.60;23.80
10231;DHT22;62604;49.432;8.680;2023-06-26T22:40:55;20.60;22.50
10231;DHT22;62604;49.432;8.680;2023-06-26T22:43:22;20.70;21.90
10231;DHT22;62604;49.432;8.680;2023-06-26T22:45:49;20.70;21.40
10231;DHT22;62604;49.432;8.680;2023-06-26T22:48:16;20.80;22.60
10231;DHT22;62604;49.432;8.680;2023-06-26T22:50:42;20.80;22.50
10231;DHT22;62604;49.432;8.680;2023-06-26T22:53:12;20.80;22.60
10231;DHT22;62604;49.432;8.680;2023-06-26T22:55:44;20.80;22.00
10231;DHT22;62604;49.432;8.680;2023-06-26T22:58:11;20.80;22.10
10231;DHT22;62604;49.432;8.680;2023-06-26T23:00:38;20.80;22.60
10231;DHT22;62604;49.432;8.680;2023-06-26T23:03:05;20.70;22.60
10231;DHT22;62604;49.432;8.680;2023-06-26T23:05:32;20.70;22.70
10231;DHT22;62604;49.432;8.680;2023-06-26T23:07:59;20.70;23.20
10231;DHT22;62604;49.432;8.680;2023-06-26T23:10:27;20.60;23.20
10231;DHT22;62604;49.432;8.680;2023-06-26T23:12:55;20.60;23.30
10231;DHT22;62604;49.432;8.680;2023-06-26T23:15:22;20.60;23.40
10231;DHT22;62604;49.432;8.680;2023-06-26T23:17:49;20.60;23.30
10231;DHT22;62604;49.432;8.680;2023-06-26T23:20:16;20.60;23.40
10231;DHT22;62604;49.432;8.680;2023-06-26T23:22:43;20.50;23.40
10231;DHT22;62604;49.432;8.680;2023-06-26T23:25:10;20.50;23.70
10231;DHT22;62604;49.432;8.680;2023-06-26T23:27:37;20.40;23.70
10231;DHT22;62604;49.432;8.680;2023-06-26T23:30:09;20.50;24.10
10231;DHT22;62604;49.432;8.680;2023-06-26T23:32:37;20.40;24.30
10231;DHT22;62604;49.432;8.680;2023-06-26T23:35:06;20.40;24.00
10231;DHT22;62604;49.432;8.680;2023-06-26T23:37:35;20.30;24.00
10231;DHT22;62604;49.432;8.680;2023-06-26T23:40:02;20.30;24.20
10231;DHT22;62604;49.432;8.680;2023-06-26T23:42:34;20.20;24.30
10231;DHT22;62604;49.432;8.680;2023-06-26T23:45:02;20.20;24.60
10231;DHT22;62604;49.432;8.680;2023-06-26T23:47:31;20.20;24.90
10231;DHT22;62604;49.432;8.680;2023-06-26T23:49:58;20.10;24.60
10231;DHT22;62604;49.432;8.680;2023-06-26T23:52:25;20.10;24.10
10231;DHT22;62604;49.432;8.680;2023-06-26T23:54:52;20.10;23.70
10231;DHT22;62604;49.432;8.680;2023-06-26T23:57:19;20.10;24.00
10231;DHT22;62604;49.432;8.680;2023-06-26T23:59:46;20.20;22.80
